Wetterdaten für den Flughafen Lübeck Blankensee


ADDS - METARS form results Aviation Digital Data Service (ADDS) Output produced by METARs form (2005 UTC 23 April 2019)
found at http://www.aviationweather.gov/metar/data/
 
EDHL 231850Z 11013KT 080V140 CAVOK 17/06 Q1006
TAF EDHL 231700Z 2318/2321 10012G22KT CAVOK

Nord: Hamburg, Lübeck
Ost: Schwerin, Rostock
Süd: Hannover
West: Bremen, Nordhloz

 

Copyright © 2016 Flugschule Hohensee